Dieringer, Washington
Current Conditions -  °F | °C
As of 8:23 AM on Friday 24 Oct 2014 (Local Time) from KTCM Reporting Station
Moderate Fog Moderate Fog  
Wind Chill: 43°   Ceiling: Unl
Heat Index: 43°   Visibility: 0.5mi
Dew Point: 43°   Wind: 0mph
Humidity: 100%   Direction: NA
Pressure: 30.04"   Gusts: NA
Location:  47.2018°N, 122.233°W
Report Text: KTCM 241523Z AUTO 00000KT 1/2SM R16/2400FT FG CLR 06/06 A3004 RMK AO2
Loading
Personal Weather Stations






























Interactive Weather Map
Tropical Storm Tracking
New forecast layout! Learn more

10-Day Weather Forecast

Advertisements
Track Severe Weather on mobile